Ulmodrome de Limoux

FR-0329 · Aude, Occitanie, Francja

Historia METAR FR-0329 · Ulmodrome de Limoux

Poniżej widzisz METAR-y z ostatnich kilku dni. Wybierz rok, aby przeglądać starsze METAR-y, począwszy od roku 2007.

9 grudnia 2022

Czas Kod Pogoda Temp. Widoczność Sufit Wiatr METAR/SPECI
02:30
L
7 °C 2,9 km 300 ft Var Var 2 kt SPECI LFMK 090130Z AUTO VRB02KT 2900 RA BR BKN003/// OVC008/// //////CB 07/06 Q0999
02:30
L
7 °C 2,9 km 300 ft Var Var 2 kt METAR LFMK 090130Z AUTO VRB02KT 2900 RA BR BKN003/// OVC008/// ///CB 07/06 Q0999
02:00
L
7 °C 2,9 km 200 ft 240° 240° 4 kt METAR LFMK 090100Z AUTO 24004KT 170V280 2900 -RA BR OVC002/// ///TCU 07/06 Q0999
01:30
L
7 °C 2,2 km 200 ft 340° 340° 3 kt METAR LFMK 090030Z AUTO 34003KT 2200 BR OVC002 07/06 Q0999
01:00
L
7 °C 2,4 km 300 ft Var Var 2 kt METAR LFMK 090000Z AUTO VRB02KT 2400 BR OVC003 07/06 Q0999
00:30
L
7 °C 2,6 km 300 ft Var 000° 0 kt METAR LFMK 082330Z AUTO 00000KT 2600 BR OVC003 07/06 Q1000
00:00
I
7 °C 3 km 500 ft Var Var 2 kt METAR LFMK 082300Z AUTO VRB02KT 3000 BR OVC005 07/06 Q1000

8 grudnia 2022

Czas Kod Pogoda Temp. Widoczność Sufit Wiatr METAR/SPECI
23:30
I
7 °C 4,5 km 700 ft 080° 080° 3 kt METAR LFMK 082230Z AUTO 08003KT 4500 BR OVC007 07/06 Q1000
23:00
I
7 °C 9 km 900 ft 090° 090° 3 kt METAR LFMK 082200Z AUTO 09003KT 9000 OVC009 07/06 Q1000
22:30
I
7 °C 10 km+ 900 ft 110° 110° 3 kt METAR LFMK 082130Z AUTO 11003KT 040V160 9999 OVC009 07/06 Q1001
22:00
M
7 °C 10 km+ 1.000 ft Var Var 3 kt METAR LFMK 082100Z AUTO VRB03KT 9999 OVC010 07/06 Q1001
21:30
M
7 °C 10 km+ 1.100 ft 090° 090° 3 kt METAR LFMK 082030Z AUTO 09003KT 060V160 9999 OVC011 07/06 Q1001
21:00
M
6 °C 10 km+ 1.200 ft Var Var 2 kt METAR LFMK 082000Z AUTO VRB02KT 9999 OVC012 06/05 Q1001
20:30
M
7 °C 10 km+ 1.200 ft 080° 080° 3 kt METAR LFMK 081930Z AUTO 08003KT 040V120 9999 OVC012 07/05 Q1002
20:00
M
6 °C 10 km+ 1.400 ft Var Var 3 kt METAR LFMK 081900Z AUTO VRB03KT 9999 OVC014 06/05 Q1002
19:30
M
6 °C 10 km+ 1.500 ft 120° 120° 4 kt METAR LFMK 081830Z AUTO 12004KT 080V170 9999 OVC015 06/04 Q1003
19:00
M
6 °C 10 km+ 1.600 ft 130° 130° 5 kt METAR LFMK 081800Z AUTO 13005KT 080V170 9999 OVC016 06/04 Q1003 BECMG BKN005
18:30
M
6 °C 10 km+ 1.500 ft 110° 110° 5 kt METAR LFMK 081730Z AUTO 11005KT 070V160 9999 OVC015 06/04 Q1003 BECMG BKN005
18:00
M
6 °C 10 km+ 1.600 ft 100° 100° 6 kt METAR LFMK 081700Z AUTO 10006KT 070V150 9999 OVC016 06/05 Q1003 BECMG BKN005
17:30
M
5 °C 9 km 1.400 ft 100° 100° 6 kt METAR LFMK 081630Z AUTO 10006KT 060V160 9000 FEW009/// OVC014/// //////TCU 05/04 Q1004 BECMG BKN005
17:00
M
5 °C 7 km 1.500 ft 100° 100° 7 kt METAR LFMK 081600Z AUTO 10007KT 070V140 7000 -RA OVC015/// ///TCU 05/04 Q1004 BECMG BKN012
16:30
M
5 °C 10 km+ 1.400 ft 090° 090° 13 kt METAR LFMK 081530Z AUTO 09013KT 9999 -RA OVC014/// //////TCU 05/03 Q1004 BECMG BKN015
16:00
M
6 °C 10 km+ 1.400 ft 090° 090° 14 kt METAR LFMK 081500Z AUTO 09014KT 070V140 9999 OVC014/// //////TCU 06/03 Q1005 BECMG BKN015
15:30
M
6 °C 10 km+ 1.500 ft 080° 080° 15 kt METAR LFMK 081430Z AUTO 08015KT 9999 OVC015 06/02 Q1005 BECMG BKN010
15:00
M
6 °C 10 km+ 1.600 ft 090° 090° 11 kt METAR LFMK 081400Z AUTO 09011KT 060V140 9999 OVC016 06/01 Q1005 BECMG BKN010
14:30
M
6 °C 10 km+ 1.700 ft 090° 090° 12 kt METAR LFMK 081330Z AUTO 09012KT 060V120 9999 OVC017 06/02 Q1005 BECMG BKN010
14:00
M
6 °C 10 km+ 1.400 ft 080° 080° 14 kt METAR LFMK 081300Z AUTO 08014KT 9999 OVC014 06/03 Q1005 NOSIG
13:30
M
6 °C 10 km+ 1.100 ft 080° 080° 15 kt METAR LFMK 081230Z AUTO 08015KT 9999 OVC011 06/04 Q1006 NOSIG
13:00
I
5 °C 6 km 700 ft 080° 080° 12 kt METAR LFMK 081200Z AUTO 08012KT 6000 OVC007 05/04 Q1007 BECMG BKN010
12:30
I
5 °C 2,8 km 500 ft 080° 080° 14 kt METAR LFMK 081130Z AUTO 08014KT 2800 BR OVC005 05/04 Q1007 BECMG 9999 NSW BKN010
12:00
L
5 °C 2,2 km 400 ft 080° 080° 14 kt METAR LFMK 081100Z AUTO 08014KT 2200 BR OVC004 05/05 Q1008 BECMG 9999 NSW BKN010
11:30
L
5 °C 2 km 400 ft 080° 080° 14 kt METAR LFMK 081030Z AUTO 08014KT 2000 BR OVC004 05/04 Q1008 BECMG 9999 NSW BKN012
11:00
I
5 °C 3,6 km 500 ft 080° 080° 14 kt METAR LFMK 081000Z AUTO 08014KT 3600 BR OVC005 05/04 Q1008 BECMG 9999 NSW BKN012
10:30
I
5 °C 9 km 800 ft 090° 090° 12 kt METAR LFMK 080930Z AUTO 09012KT 9000 OVC008 05/04 Q1009 BECMG BKN012
10:00
I
6 °C 10 km+ 800 ft 080° 080° 12 kt METAR LFMK 080900Z AUTO 08012KT 9999 OVC008 06/03 Q1008 NOSIG
09:30
I
6 °C 10 km+ 900 ft 080° 080° 13 kt METAR LFMK 080830Z AUTO 08013KT 9999 OVC009 06/03 Q1009 BECMG BKN017
09:00
M
6 °C 10 km+ 1.100 ft 090° 090° 12 kt METAR LFMK 080800Z AUTO 09012KT 9999 OVC011 06/03 Q1009 BECMG BKN017
08:30
M
5 °C 10 km+ 1.100 ft 090° 090° 10 kt METAR LFMK 080730Z AUTO 09010KT 9999 OVC011 05/02 Q1009 BECMG BKN017
08:00
M
5 °C 10 km+ 1.000 ft 080° 080° 11 kt METAR LFMK 080700Z AUTO 08011KT 9999 OVC010 05/02 Q1009 BECMG BKN017
07:30
M
5 °C 10 km+ 1.000 ft 080° 080° 10 kt METAR LFMK 080630Z AUTO 08010KT 9999 OVC010 05/02 Q1009 BECMG BKN017
07:00
M
5 °C 10 km+ 1.000 ft 080° 080° 7 kt METAR LFMK 080600Z AUTO 08007KT 9999 OVC010 05/02 Q1009 NOSIG
06:30
M
5 °C 10 km+ 1.000 ft 080° 080° 9 kt METAR LFMK 080530Z AUTO 08009KT 9999 OVC010 05/02 Q1009 NOSIG
06:00
M
5 °C 10 km+ 1.000 ft 080° 080° 9 kt METAR LFMK 080500Z AUTO 08009KT 9999 OVC010 05/02 Q1009 NOSIG
05:30
M
5 °C 10 km+ 1.000 ft 090° 090° 8 kt METAR LFMK 080430Z AUTO 09008KT 060V120 9999 OVC010 05/02 Q1010 NOSIG
05:00
M
5 °C 10 km+ 1.000 ft 080° 080° 9 kt METAR LFMK 080400Z AUTO 08009KT 9999 OVC010 05/02 Q1010 NOSIG
04:30
M
5 °C 10 km+ 1.100 ft 080° 080° 8 kt METAR LFMK 080330Z AUTO 08008KT 9999 OVC011 05/02 Q1010 NOSIG
04:00
M
5 °C 10 km+ 1.200 ft 090° 090° 6 kt METAR LFMK 080300Z AUTO 09006KT 060V130 9999 OVC012 05/02 Q1010
03:30
M
5 °C 10 km+ 1.300 ft 090° 090° 5 kt METAR LFMK 080230Z AUTO 09005KT 060V120 9999 OVC013 05/02 Q1011
03:00
M
4 °C 10 km+ 1.200 ft 090° 090° 4 kt METAR LFMK 080200Z AUTO 09004KT 060V140 9999 OVC012 04/02 Q1011
02:30
M
4 °C 10 km+ 1.100 ft 080° 080° 4 kt METAR LFMK 080130Z AUTO 08004KT 9999 BKN011 BKN082 OVC100 04/02 Q1011
02:00
V
3 °C 10 km+ 10.000 ft 070° 070° 5 kt METAR LFMK 080100Z AUTO 07005KT 9999 SCT009 BKN100 03/02 Q1011
01:30
V
2 °C 10 km+ 10.000 ft 070° 070° 4 kt METAR LFMK 080030Z AUTO 07004KT 040V140 9999 FEW026 BKN100 02/01 Q1012
01:00
V
1 °C 10 km+ - Var 000° 0 kt METAR LFMK 080000Z AUTO 00000KT CAVOK 01/00 Q1012
00:30
V
2 °C 10 km+ - Var Var 2 kt METAR LFMK 072330Z AUTO VRB02KT 9999 ////// 02/01 Q1012
00:00
V
2 °C 10 km+ - Var Var 2 kt METAR LFMK 072300Z AUTO VRB02KT CAVOK 02/02 Q1012

7 grudnia 2022

Czas Kod Pogoda Temp. Widoczność Sufit Wiatr METAR/SPECI
23:30
V
2 °C 10 km+ - Var 000° 0 kt METAR LFMK 072230Z AUTO 00000KT CAVOK 02/01 Q1012
23:00
V
2 °C 10 km+ - Var Var 2 kt METAR LFMK 072200Z AUTO VRB02KT CAVOK 02/01 Q1012
22:30
V
3 °C 10 km+ - 270° 270° 2 kt METAR LFMK 072130Z AUTO 27002KT CAVOK 03/01 Q1012
22:00
V
4 °C 10 km+ - Var 000° 0 kt METAR LFMK 072100Z AUTO 00000KT CAVOK 04/01 Q1012
21:30
V
5 °C 10 km+ - 090° 090° 3 kt METAR LFMK 072030Z AUTO 09003KT CAVOK 05/02 Q1012
21:00
V
5 °C 10 km+ - 030° 030° 2 kt METAR LFMK 072000Z AUTO 03002KT CAVOK 05/03 Q1012
20:30
V
5 °C 10 km+ - Var 000° 0 kt METAR LFMK 071930Z AUTO 00000KT CAVOK 05/02 Q1012
20:00
V
6 °C 10 km+ - Var 000° 0 kt METAR LFMK 071900Z AUTO 00000KT CAVOK 06/02 Q1012
19:30
V
8 °C 10 km+ 22.000 ft Var Var 2 kt METAR LFMK 071830Z AUTO VRB02KT 9999 FEW068 OVC220 08/03 Q1012
19:00
V
9 °C 10 km+ 25.000 ft Var Var 3 kt METAR LFMK 071800Z AUTO VRB03KT 9999 SCT068 BKN250 09/03 Q1012 NOSIG
18:30
V
10 °C 10 km+ - 260° 260° 5 kt METAR LFMK 071730Z AUTO 26005KT 230V290 CAVOK 10/03 Q1012 NOSIG
18:00
V
10 °C 10 km+ - 280° 280° 5 kt METAR LFMK 071700Z AUTO 28005KT CAVOK 10/03 Q1012 NOSIG
17:30
V
11 °C 10 km+ 22.000 ft 270° 270° 7 kt METAR LFMK 071630Z AUTO 27007KT 9999 FEW070 BKN220 BKN240 11/03 Q1012 NOSIG
17:00
V
12 °C 10 km+ - 260° 260° 7 kt METAR LFMK 071600Z AUTO 26007KT 230V300 CAVOK 12/05 Q1012 NOSIG
16:30
V
12 °C 10 km+ - 260° 260° 7 kt METAR LFMK 071530Z AUTO 26007KT 230V290 CAVOK 12/05 Q1012 NOSIG
16:00
V
13 °C 10 km+ - 260° 260° 8 kt METAR LFMK 071500Z AUTO 26008KT 230V300 CAVOK 13/05 Q1012 NOSIG
15:30
V
14 °C 10 km+ - 270° 270° 8 kt METAR LFMK 071430Z AUTO 27008KT 220V290 CAVOK 14/05 Q1012 NOSIG
15:00
V
14 °C 10 km+ - 270° 270° 10 kt METAR LFMK 071400Z AUTO 27010KT 230V290 CAVOK 14/05 Q1012 NOSIG
14:30
V
14 °C 10 km+ - 260° 260° 11 kt METAR LFMK 071330Z AUTO 26011KT 230V290 CAVOK 14/04 Q1013 NOSIG
14:00
V
14 °C 10 km+ - 280° 280° 11 kt METAR LFMK 071300Z AUTO 28011KT CAVOK 14/05 Q1013 NOSIG
13:30
V
14 °C 10 km+ - 280° 280° 11 kt METAR LFMK 071230Z AUTO 28011KT CAVOK 14/05 Q1013 NOSIG
13:00
V
14 °C 10 km+ - 270° 270° 10 kt METAR LFMK 071200Z AUTO 27010KT 230V290 CAVOK 14/04 Q1014 NOSIG
12:30
V
13 °C 10 km+ - 280° 280° 11 kt METAR LFMK 071130Z AUTO 28011KT CAVOK 13/03 Q1014 NOSIG
12:00
V
13 °C 10 km+ - 270° 270° 10 kt METAR LFMK 071100Z AUTO 27010KT CAVOK 13/04 Q1014 NOSIG
11:30
V
12 °C 10 km+ - 270° 270° 11 kt METAR LFMK 071030Z AUTO 27011KT 230V290 CAVOK 12/03 Q1014 NOSIG
11:00
V
12 °C 10 km+ - 260° 260° 8 kt METAR LFMK 071000Z AUTO 26008KT 230V300 9999 FEW076 12/04 Q1015 NOSIG
10:30
V
12 °C 10 km+ 7.400 ft 260° 260° 7 kt METAR LFMK 070930Z AUTO 26007KT 220V290 9999 BKN074 12/04 Q1015 NOSIG
10:00
V
11 °C 10 km+ 7.400 ft 260° 260° 7 kt METAR LFMK 070900Z AUTO 26007KT 210V300 9999 OVC074 11/05 Q1015 NOSIG
09:30
V
10 °C 10 km+ 7.200 ft 270° 270° 6 kt METAR LFMK 070830Z AUTO 27006KT 230V300 9999 OVC072 10/06 Q1015 NOSIG
09:00
V
9 °C 10 km+ 7.000 ft 250° 250° 4 kt METAR LFMK 070800Z AUTO 25004KT 200V320 9999 OVC070 09/05 Q1015 NOSIG
08:30
V
8 °C 10 km+ 7.400 ft 240° 240° 5 kt METAR LFMK 070730Z AUTO 24005KT 200V300 9999 OVC074 08/05 Q1015 NOSIG
08:00
V
8 °C 10 km+ 5.000 ft 260° 260° 7 kt METAR LFMK 070700Z AUTO 26007KT 230V300 9999 BKN050 OVC078 08/04 Q1015 NOSIG
07:30
V
8 °C 10 km+ 7.600 ft 260° 260° 7 kt METAR LFMK 070630Z AUTO 26007KT 240V300 9999 SCT052 OVC076 08/04 Q1015 NOSIG
07:00
V
8 °C 10 km+ 6.400 ft 260° 260° 6 kt METAR LFMK 070600Z AUTO 26006KT 230V290 9999 BKN064 BKN082 08/04 Q1015 NOSIG
06:30
V
7 °C 10 km+ 6.600 ft 260° 260° 6 kt METAR LFMK 070530Z AUTO 26006KT 230V290 9999 BKN066 OVC082 07/03 Q1015 NOSIG
06:00
V
7 °C 10 km+ 8.000 ft 260° 260° 4 kt METAR LFMK 070500Z AUTO 26004KT 220V310 9999 FEW070 OVC080 07/04 Q1015 NOSIG
05:30
V
7 °C 10 km+ 8.000 ft Var Var 2 kt METAR LFMK 070430Z AUTO VRB02KT 9999 FEW062 OVC080 07/03 Q1015 NOSIG
05:00
V
7 °C 10 km+ 8.400 ft Var Var 3 kt METAR LFMK 070400Z AUTO VRB03KT 9999 BKN084 07/03 Q1015 NOSIG
04:30
V
8 °C 10 km+ 8.400 ft 270° 270° 3 kt METAR LFMK 070330Z AUTO 27003KT 220V290 9999 FEW070 BKN084 08/03 Q1015 NOSIG
04:00
V
7 °C 10 km+ 8.600 ft Var Var 2 kt METAR LFMK 070300Z AUTO VRB02KT 9999 SCT076 BKN086 07/04 Q1015 NOSIG
03:30
V
8 °C 10 km+ 7.800 ft Var Var 1 kt METAR LFMK 070230Z AUTO VRB01KT 9999 OVC078 08/05 Q1015
03:00
V
8 °C 10 km+ 5.600 ft Var Var 1 kt METAR LFMK 070200Z AUTO VRB01KT 9999 BKN056 OVC078 08/05 Q1015
02:30
V
8 °C 10 km+ 5.600 ft Var Var 1 kt METAR LFMK 070130Z AUTO VRB01KT 9999 FEW048 BKN056 OVC080 08/03 Q1015
02:00
V
9 °C 10 km+ 5.000 ft Var Var 3 kt METAR LFMK 070100Z AUTO VRB03KT 9999 BKN050 OVC080 09/03 Q1015
01:30
V
9 °C 10 km+ 8.000 ft Var Var 3 kt METAR LFMK 070030Z AUTO VRB03KT 9999 OVC080 09/03 Q1015
01:00
V
9 °C 10 km+ 8.200 ft 270° 270° 4 kt METAR LFMK 070000Z AUTO 27004KT 220V310 9999 OVC082 09/04 Q1016
00:30
V
9 °C 10 km+ 8.000 ft 240° 240° 7 kt METAR LFMK 062330Z AUTO 24007KT 210V270 9999 OVC080 09/04 Q1016
00:00
V
9 °C 10 km+ 8.000 ft 230° 230° 6 kt METAR LFMK 062300Z AUTO 23006KT 190V260 9999 FEW062 OVC080 09/05 Q1016

6 grudnia 2022

Czas Kod Pogoda Temp. Widoczność Sufit Wiatr METAR/SPECI
23:30
V
8 °C 10 km+ 8.000 ft 230° 230° 6 kt METAR LFMK 062230Z AUTO 23006KT 200V260 9999 FEW066 BKN080 08/05 Q1016
23:00
V
7 °C 10 km+ - 210° 210° 3 kt METAR LFMK 062200Z AUTO 21003KT 180V240 9999 SCT078 SCT100 07/05 Q1015
22:30
V
8 °C 10 km+ 7.600 ft Var Var 3 kt METAR LFMK 062130Z AUTO VRB03KT 9999 BKN076 BKN100 BKN130 08/05 Q1016
22:00
V
9 °C 10 km+ 13.000 ft 230° 230° 6 kt METAR LFMK 062100Z AUTO 23006KT 190V260 9999 FEW074 OVC130 09/05 Q1015
21:30
V
9 °C 10 km+ 12.000 ft 220° 220° 5 kt METAR LFMK 062030Z AUTO 22005KT 180V250 9999 SCT070 BKN120 OVC140 09/05 Q1016
21:00
V
10 °C 10 km+ - 240° 240° 6 kt METAR LFMK 062000Z AUTO 24006KT 170V280 CAVOK 10/05 Q1015
20:30
V
9 °C 10 km+ - 230° 230° 4 kt METAR LFMK 061930Z AUTO 23004KT 140V310 9999 //////TCU 09/05 Q1015
20:00
V
9 °C 10 km+ - 230° 230° 4 kt METAR LFMK 061900Z AUTO 23004KT 180V280 9999 ///CB 09/05 Q1015
19:30
V
10 °C 10 km+ - 250° 250° 4 kt METAR LFMK 061830Z AUTO 25004KT 9999 ///CB 10/05 Q1015
19:00
V
10 °C 10 km+ - 240° 240° 4 kt METAR LFMK 061800Z AUTO 24004KT 200V270 9999 ///TCU 10/06 Q1015 TEMPO BKN070
18:30
V
10 °C 10 km+ - 250° 250° 4 kt METAR LFMK 061730Z AUTO 25004KT 9999 ///CB 10/06 Q1015 TEMPO BKN070
18:00
V
10 °C 10 km+ - 220° 220° 4 kt METAR LFMK 061700Z AUTO 22004KT 180V250 9999 ///TCU 10/05 Q1015 TEMPO BKN070
17:30
V
10 °C 10 km+ 9.800 ft 240° 240° 4 kt METAR LFMK 061630Z AUTO 24004KT 9999 FEW074/// BKN098/// BKN130/// //////TCU 10/05 Q1015 TEMPO BKN070
17:00
V
11 °C 10 km+ - 230° 230° 3 kt METAR LFMK 061600Z AUTO 23003KT 200V280 CAVOK 11/05 Q1015 NOSIG
16:30
V
11 °C 10 km+ - 270° 270° 3 kt METAR LFMK 061530Z AUTO 27003KT CAVOK 11/05 Q1015 NOSIG
16:00
V
12 °C 10 km+ - 280° 280° 3 kt METAR LFMK 061500Z AUTO 28003KT CAVOK 12/05 Q1014 NOSIG
15:30
V
12 °C 10 km+ - Var Var 2 kt METAR LFMK 061430Z AUTO VRB02KT CAVOK 12/05 Q1014 NOSIG
15:00
V
12 °C 10 km+ - Var Var 2 kt METAR LFMK 061400Z AUTO VRB02KT CAVOK 12/05 Q1014 NOSIG
14:30
V
12 °C 10 km+ - Var Var 2 kt METAR LFMK 061330Z AUTO VRB02KT CAVOK 12/05 Q1015 NOSIG
14:00
V
13 °C 10 km+ - Var Var 2 kt METAR LFMK 061300Z AUTO VRB02KT CAVOK 13/04 Q1015 NOSIG
13:30
V
12 °C 10 km+ - 070° 070° 3 kt METAR LFMK 061230Z AUTO 07003KT 040V110 CAVOK 12/04 Q1015 NOSIG
13:00
V
13 °C 10 km+ - Var Var 2 kt METAR LFMK 061200Z AUTO VRB02KT CAVOK 13/04 Q1015 NOSIG
12:30
V
12 °C 10 km+ - 080° 080° 4 kt METAR LFMK 061130Z AUTO 08004KT 050V130 CAVOK 12/03 Q1016 NOSIG
12:00
V
11 °C 10 km+ - 070° 070° 6 kt METAR LFMK 061100Z AUTO 07006KT 050V110 CAVOK 11/03 Q1016 NOSIG
11:30
V
10 °C 10 km+ - 090° 090° 5 kt METAR LFMK 061030Z AUTO 09005KT 060V130 CAVOK 10/02 Q1016 NOSIG
11:00
V
9 °C 10 km+ - 100° 100° 4 kt METAR LFMK 061000Z AUTO 10004KT 060V160 CAVOK 09/01 Q1017 NOSIG

My i strony trzecie śledzimy Twoje zachowanie internetowe na naszej stronie za pomocą plików cookie. Jeśli kontynuujesz, zakładamy, że zgadzasz się z naszymi polityka plików cookie.